Time;durP1;ratioP1;P1;durP2;ratioP2;P2;SDS_P1;SDS_P2;PMS_P1;PMS_P2;Temp;Humidity;BMP_temperature;BMP_pressure;BME280_temperature;BME280_humidity;BME280_pressure;Samples;Min_cycle;Max_cycle;Signal;HPM_P1;HPM_P2
2021/03/22 00:01:26;;;;;;;;;;;;;;;;;;5046914;28;835;-62
2021/03/22 00:03:51;;;;;;;;;;;;;;;;;;5046594;28;810;-62
2021/03/22 00:06:16;;;;;;;;;;;;;;;;;;5046306;28;891;-62
2021/03/22 00:08:42;;;;;;;;;;;;;;;;;;5046897;28;876;-65
2021/03/22 00:11:07;;;;;;;;;;;;;;;;;;5046743;28;918;-61
2021/03/22 00:13:33;;;;;;;;;;;;;;;;;;5047576;28;1955;-61
2021/03/22 00:16:00;;;;;;;;;;;;;;;;;;5047355;28;858;-61
2021/03/22 00:18:27;;;;;;;;;;;;;;;;;;5047106;28;905;-61
2021/03/22 00:20:53;;;;;;;;;;;;;;;;;;5046523;28;835;-61
2021/03/22 00:23:18;;;;;;;;;;;;;;;;;;5046397;28;827;-61
2021/03/22 00:25:44;;;;;;;;;;;;;;;;;;5047086;28;950;-61
2021/03/22 00:28:10;;;;;;;;;;;;;;;;;;5046363;28;911;-61
2021/03/22 00:30:37;;;;;;;;;;;;;;;;;;5046779;28;886;-62
2021/03/22 00:33:03;;;;;;;;;;;;;;;;;;5047094;28;1683;-61
2021/03/22 00:35:29;;;;;;;;;;;;;;;;;;5046181;28;1889;-61
2021/03/22 00:37:54;;;;;;;;;;;;;;;;;;5048610;28;1157;-61
2021/03/22 00:40:21;;;;;;;;;;;;;;;;;;5046502;28;826;-61
2021/03/22 00:42:46;;;;;;;;;;;;;;;;;;5046389;28;934;-61
2021/03/22 00:45:13;;;;;;;;;;;;;;;;;;5046735;28;823;-61
2021/03/22 00:47:38;;;;;;;;;;;;;;;;;;5046683;28;839;-61
2021/03/22 00:50:05;;;;;;;;;;;;;;;;;;5046681;28;855;-61
2021/03/22 00:52:31;;;;;;;;;;;;;;;;;;5046929;28;1121;-61
2021/03/22 00:54:56;;;;;;;;;;;;;;;;;;5067808;28;1901;-61
2021/03/22 00:57:21;;;;;;;;;;;;;;;;;;5070601;28;839;-61
2021/03/22 00:59:47;;;;;;;;;;;;;;;;;;5070203;28;819;-60
2021/03/22 01:02:12;;;;;;;;;;;;;;;;;;5069456;28;687;-61
2021/03/22 01:04:37;;;;;;;;;;;;;;;;;;5069644;28;795;-61
2021/03/22 01:07:03;;;;;;;;;;;;;;;;;;5070773;28;846;-61
2021/03/22 01:09:29;;;;;;;;;;;;;;;;;;5069485;28;875;-61
2021/03/22 01:11:54;;;;;;;;;;;;;;;;;;5069450;28;822;-61
2021/03/22 01:14:20;;;;;;;;;;;;;;;;;;5069641;28;1893;-61
2021/03/22 01:16:45;;;;;;;;;;;;;;;;;;5069342;28;948;-61
2021/03/22 01:19:18;;;;;;;;;;;;;;;;;;5069505;28;904;-61
2021/03/22 01:21:45;;;;;;;;;;;;;;;;;;5069535;28;847;-61
2021/03/22 01:24:12;;;;;;;;;;;;;;;;;;5069650;28;901;-61
2021/03/22 01:26:38;;;;;;;;;;;;;;;;;;5069463;28;910;-61
2021/03/22 01:29:17;;;;;;;;;;;;;;;;;;5070269;28;1006;-61
2021/03/22 01:31:42;;;;;;;;;;;;;;;;;;5069370;28;851;-61
2021/03/22 01:34:08;;;;;;;;;;;;;;;;;;5069022;28;1890;-61
2021/03/22 01:36:34;;;;;;;;;;;;;;;;;;5070120;28;855;-61
2021/03/22 01:39:08;;;;;;;;;;;;;;;;;;5069501;28;941;-61
2021/03/22 01:41:43;;;;;;;;;;;;;;;;;;5069892;28;839;-61
2021/03/22 01:44:35;;;;;;;;;;;;;;;;;;5068925;28;867;-61
2021/03/22 01:47:07;;;;;;;;;;;;;;;;;;5069264;28;1257;-61
2021/03/22 01:50:02;;;;;;;;;;;;;;;;;;5070157;28;918;-61
2021/03/22 01:52:28;;;;;;;;;;;;;;;;;;5068093;28;1476;-61
2021/03/22 01:54:54;;;;;;;;;;;;;;;;;;5050167;28;1988;-61
2021/03/22 01:57:35;;;;;;;;;;;;;;;;;;5049370;28;906;-61
2021/03/22 02:00:09;;;;;;;;;;;;;;;;;;5049465;28;858;-61
2021/03/22 02:02:35;;;;;;;;;;;;;;;;;;5048514;28;804;-62
2021/03/22 02:05:02;;;;;;;;;;;;;;;;;;5049982;28;871;-61
2021/03/22 02:07:29;;;;;;;;;;;;;;;;;;5048898;28;882;-62
2021/03/22 02:09:54;;;;;;;;;;;;;;;;;;5048725;28;812;-62
2021/03/22 02:12:20;;;;;;;;;;;;;;;;;;5048922;28;838;-61
2021/03/22 02:14:46;;;;;;;;;;;;;;;;;;5048620;28;1902;-61
2021/03/22 02:17:14;;;;;;;;;;;;;;;;;;5048713;28;839;-62
2021/03/22 02:19:54;;;;;;;;;;;;;;;;;;5048664;28;832;-62
2021/03/22 02:22:20;;;;;;;;;;;;;;;;;;5048976;28;858;-61
2021/03/22 02:25:04;;;;;;;;;;;;;;;;;;5048954;28;906;-62
2021/03/22 02:27:29;;;;;;;;;;;;;;;;;;5048702;28;827;-61
2021/03/22 02:30:11;;;;;;;;;;;;;;;;;;5051425;28;1143;-61
2021/03/22 02:32:49;;;;;;;;;;;;;;;;;;5048178;28;878;-61
2021/03/22 02:35:28;;;;;;;;;;;;;;;;;;5047968;28;1915;-62
2021/03/22 02:37:58;;;;;;;;;;;;;;;;;;5048422;28;886;-62
2021/03/22 02:40:34;;;;;;;;;;;;;;;;;;5048004;28;836;-61
2021/03/22 02:43:01;;;;;;;;;;;;;;;;;;5046746;28;882;-62
2021/03/22 02:45:31;;;;;;;;;;;;;;;;;;5048059;28;910;-62
2021/03/22 02:47:58;;;;;;;;;;;;;;;;;;5048031;28;838;-61
2021/03/22 02:50:26;;;;;;;;;;;;;;;;;;5047228;28;882;-62
2021/03/22 02:53:11;;;;;;;;;;;;;;;;;;5049028;28;1078;-62
2021/03/22 02:55:40;;;;;;;;;;;;;;;;;;5067656;28;1979;-62
2021/03/22 02:58:06;;;;;;;;;;;;;;;;;;5067250;28;870;-61
2021/03/22 03:00:37;;;;;;;;;;;;;;;;;;5068669;28;795;-62
2021/03/22 03:03:06;;;;;;;;;;;;;;;;;;5068780;28;910;-62
2021/03/22 03:05:32;;;;;;;;;;;;;;;;;;5066911;28;1182;-61
2021/03/22 03:08:03;;;;;;;;;;;;;;;;;;5067324;28;835;-62
2021/03/22 03:10:28;;;;;;;;;;;;;;;;;;5067467;28;930;-62
2021/03/22 03:12:54;;;;;;;;;;;;;;;;;;5067905;28;811;-62
2021/03/22 03:15:20;;;;;;;;;;;;;;;;;;5065759;28;1890;-62
2021/03/22 03:17:46;;;;;;;;;;;;;;;;;;5066975;28;935;-62
2021/03/22 03:20:13;;;;;;;;;;;;;;;;;;5067974;28;807;-61
2021/03/22 03:22:40;;;;;;;;;;;;;;;;;;5067580;28;942;-62
2021/03/22 03:25:07;;;;;;;;;;;;;;;;;;5067134;28;913;-62
2021/03/22 03:27:32;;;;;;;;;;;;;;;;;;5068137;28;843;-61
2021/03/22 03:29:58;;;;;;;;;;;;;;;;;;5067267;28;871;-61
2021/03/22 03:32:23;;;;;;;;;;;;;;;;;;5067308;28;857;-62
2021/03/22 03:34:48;;;;;;;;;;;;;;;;;;5067138;28;1898;-61
2021/03/22 03:37:14;;;;;;;;;;;;;;;;;;5066167;28;839;-61
2021/03/22 03:39:39;;;;;;;;;;;;;;;;;;5067121;28;834;-61
2021/03/22 03:42:05;;;;;;;;;;;;;;;;;;5067776;28;842;-61
2021/03/22 03:44:31;;;;;;;;;;;;;;;;;;5068368;28;870;-61
2021/03/22 03:46:56;;;;;;;;;;;;;;;;;;5067367;28;795;-62
2021/03/22 03:49:22;;;;;;;;;;;;;;;;;;5067424;28;834;-62
2021/03/22 03:51:47;;;;;;;;;;;;;;;;;;5067629;28;842;-61
2021/03/22 03:54:13;;;;;;;;;;;;;;;;;;5054206;28;1983;-62
2021/03/22 03:56:38;;;;;;;;;;;;;;;;;;5047114;28;891;-62
2021/03/22 03:59:05;;;;;;;;;;;;;;;;;;5047948;28;863;-62
2021/03/22 04:01:31;;;;;;;;;;;;;;;;;;5047885;28;818;-61
2021/03/22 04:03:56;;;;;;;;;;;;;;;;;;5046722;28;1023;-62
2021/03/22 04:06:26;;;;;;;;;;;;;;;;;;5047234;28;838;-62
2021/03/22 04:08:53;;;;;;;;;;;;;;;;;;5047453;28;905;-61
2021/03/22 04:11:26;;;;;;;;;;;;;;;;;;5046600;28;910;-61
2021/03/22 04:13:52;;;;;;;;;;;;;;;;;;5046391;28;1889;-61
2021/03/22 04:16:17;;;;;;;;;;;;;;;;;;5046890;28;941;-62
2021/03/22 04:18:43;;;;;;;;;;;;;;;;;;5047382;28;815;-61
2021/03/22 04:21:12;;;;;;;;;;;;;;;;;;5046726;28;943;-61
2021/03/22 04:23:38;;;;;;;;;;;;;;;;;;5046702;28;926;-62
2021/03/22 04:26:04;;;;;;;;;;;;;;;;;;5047637;28;811;-61
2021/03/22 04:28:29;;;;;;;;;;;;;;;;;;5046641;28;803;-62
2021/03/22 04:30:55;;;;;;;;;;;;;;;;;;5050328;28;838;-61
2021/03/22 04:33:21;;;;;;;;;;;;;;;;;;5052904;28;1081;-62
2021/03/22 04:35:46;;;;;;;;;;;;;;;;;;5050003;28;1896;-61
2021/03/22 04:38:11;;;;;;;;;;;;;;;;;;5050110;28;883;-61
2021/03/22 04:40:37;;;;;;;;;;;;;;;;;;5050254;28;843;-62
2021/03/22 04:43:02;;;;;;;;;;;;;;;;;;5051461;28;828;-62
2021/03/22 04:45:28;;;;;;;;;;;;;;;;;;5050207;28;812;-61
2021/03/22 04:47:54;;;;;;;;;;;;;;;;;;5050044;28;1078;-61
2021/03/22 04:50:22;;;;;;;;;;;;;;;;;;5050119;28;823;-61
2021/03/22 04:52:48;;;;;;;;;;;;;;;;;;5051210;28;1157;-62
2021/03/22 04:55:13;;;;;;;;;;;;;;;;;;5069919;28;1921;-61
2021/03/22 04:57:38;;;;;;;;;;;;;;;;;;5069945;28;863;-61
2021/03/22 05:00:06;;;;;;;;;;;;;;;;;;5071314;28;875;-61
2021/03/22 05:02:31;;;;;;;;;;;;;;;;;;5070741;28;918;-61
2021/03/22 05:04:56;;;;;;;;;;;;;;;;;;5065628;28;2646;-61
2021/03/22 05:07:22;;;;;;;;;;;;;;;;;;5038441;28;811;-61
2021/03/22 05:09:47;;;;;;;;;;;;;;;;;;5049649;28;819;-61
2021/03/22 05:12:13;;;;;;;;;;;;;;;;;;5049461;28;938;-61
2021/03/22 05:14:39;;;;;;;;;;;;;;;;;;5049757;28;1960;-60
2021/03/22 05:17:05;;;;;;;;;;;;;;;;;;5051007;28;922;-61
2021/03/22 05:19:31;;;;;;;;;;;;;;;;;;5049677;28;1180;-61
2021/03/22 05:21:57;;;;;;;;;;;;;;;;;;5049769;28;803;-61
2021/03/22 05:24:22;;;;;;;;;;;;;;;;;;5049752;28;905;-61
2021/03/22 05:26:48;;;;;;;;;;;;;;;;;;5049031;28;878;-61
2021/03/22 05:29:13;;;;;;;;;;;;;;;;;;5049214;28;834;-61
2021/03/22 05:31:39;;;;;;;;;;;;;;;;;;5049446;28;894;-61
2021/03/22 05:34:04;;;;;;;;;;;;;;;;;;5065859;28;1953;-61
2021/03/22 05:36:29;;;;;;;;;;;;;;;;;;5049602;28;830;-61
2021/03/22 05:38:55;;;;;;;;;;;;;;;;;;5049429;28;838;-60
2021/03/22 05:41:22;;;;;;;;;;;;;;;;;;5049352;28;879;-61
2021/03/22 05:43:51;;;;;;;;;;;;;;;;;;5041619;28;2624;-61
2021/03/22 05:46:25;;;;;;;;;;;;;;;;;;5042860;28;847;-61
2021/03/22 05:48:57;;;;;;;;;;;;;;;;;;5049105;28;811;-60
2021/03/22 05:51:33;;;;;;;;;;;;;;;;;;5049040;28;1141;-61
2021/03/22 05:54:04;;;;;;;;;;;;;;;;;;5059973;28;1978;-60
2021/03/22 05:56:40;;;;;;;;;;;;;;;;;;5069276;28;959;-60
2021/03/22 05:59:12;;;;;;;;;;;;;;;;;;5069564;28;842;-62
2021/03/22 06:01:43;;;;;;;;;;;;;;;;;;5068563;28;952;-61
2021/03/22 06:04:12;;;;;;;;;;;;;;;;;;5068452;28;882;-60
2021/03/22 06:06:41;;;;;;;;;;;;;;;;;;5069077;28;834;-60
2021/03/22 06:09:06;;;;;;;;;;;;;;;;;;5068746;28;898;-61
2021/03/22 06:11:35;;;;;;;;;;;;;;;;;;5069452;28;811;-61
2021/03/22 06:14:03;;;;;;;;;;;;;;;;;;5069610;28;1984;-61
2021/03/22 06:16:42;;;;;;;;;;;;;;;;;;5068631;28;934;-61
2021/03/22 06:19:09;;;;;;;;;;;;;;;;;;5068424;28;855;-61
2021/03/22 06:21:36;;;;;;;;;;;;;;;;;;5067245;28;859;-61
2021/03/22 06:24:09;;;;;;;;;;;;;;;;;;5068251;28;1025;-62
2021/03/22 06:26:40;;;;;;;;;;;;;;;;;;5064629;28;1063;-63
2021/03/22 06:29:08;;;;;;;;;;;;;;;;;;5068316;28;819;-62
2021/03/22 06:31:34;;;;;;;;;;;;;;;;;;5069057;28;1929;-62
2021/03/22 06:34:04;;;;;;;;;;;;;;;;;;5067879;28;1890;-62
2021/03/22 06:36:30;;;;;;;;;;;;;;;;;;5067577;28;819;-62
2021/03/22 06:38:57;;;;;;;;;;;;;;;;;;5067985;28;870;-62
2021/03/22 06:41:37;;;;;;;;;;;;;;;;;;5068297;28;956;-61
2021/03/22 06:44:05;;;;;;;;;;;;;;;;;;5068850;28;970;-62
2021/03/22 06:46:31;;;;;;;;;;;;;;;;;;5068778;28;815;-61
2021/03/22 06:48:58;;;;;;;;;;;;;;;;;;5068439;28;815;-62
2021/03/22 06:51:24;;;;;;;;;;;;;;;;;;5067456;28;890;-62
2021/03/22 06:53:54;;;;;;;;;;;;;;;;;;5057835;28;1971;-62
2021/03/22 06:56:24;;;;;;;;;;;;;;;;;;5047826;28;945;-62
2021/03/22 06:58:50;;;;;;;;;;;;;;;;;;5047582;28;867;-61
2021/03/22 07:01:16;;;;;;;;;;;;;;;;;;5047262;28;862;-62
2021/03/22 07:03:41;;;;;;;;;;;;;;;;;;5047439;28;851;-62
2021/03/22 07:06:16;;;;;;;;;;;;;;;;;;5048050;28;926;-61
2021/03/22 07:08:42;;;;;;;;;;;;;;;;;;5047575;28;898;-62
2021/03/22 07:11:10;;;;;;;;;;;;;;;;;;5047129;28;835;-62
2021/03/22 07:13:35;;;;;;;;;;;;;;;;;;5046297;28;835;-62
2021/03/22 07:16:10;;;;;;;;;;;;;;;;;;5048233;28;2017;-61
2021/03/22 07:18:37;;;;;;;;;;;;;;;;;;5047014;28;827;-62
2021/03/22 07:21:05;;;;;;;;;;;;;;;;;;5048789;28;933;-62
2021/03/22 07:23:46;;;;;;;;;;;;;;;;;;5048227;28;823;-61
2021/03/22 07:26:20;;;;;;;;;;;;;;;;;;5047283;28;823;-61
2021/03/22 07:29:04;;;;;;;;;;;;;;;;;;5047386;28;831;-62
2021/03/22 07:31:38;;;;;;;;;;;;;;;;;;5047517;28;807;-61
2021/03/22 07:34:22;;;;;;;;;;;;;;;;;;5048059;28;1910;-61
2021/03/22 07:37:07;;;;;;;;;;;;;;;;;;5046735;28;779;-61
2021/03/22 07:39:36;;;;;;;;;;;;;;;;;;5047820;28;1063;-61
2021/03/22 07:42:19;;;;;;;;;;;;;;;;;;5048032;28;815;-61
2021/03/22 07:44:59;;;;;;;;;;;;;;;;;;5045945;28;906;-61
2021/03/22 07:47:37;;;;;;;;;;;;;;;;;;5047140;28;847;-62
2021/03/22 07:50:21;;;;;;;;;;;;;;;;;;5047773;28;882;-62
2021/03/22 07:53:02;;;;;;;;;;;;;;;;;;5048043;28;1180;-61
2021/03/22 07:55:38;;;;;;;;;;;;;;;;;;5067298;28;1902;-61
2021/03/22 07:58:32;;;;;;;;;;;;;;;;;;5067546;28;922;-62
2021/03/22 08:01:03;;;;;;;;;;;;;;;;;;5064324;28;1194;-62
2021/03/22 08:03:44;;;;;;;;;;;;;;;;;;5069153;28;877;-62
2021/03/22 08:06:36;;;;;;;;;;;;;;;;;;5070527;28;910;-61
2021/03/22 08:09:04;;;;;;;;;;;;;;;;;;5071011;28;1007;-62
2021/03/22 08:11:42;;;;;;;;;;;;;;;;;;5071230;28;882;-62
2021/03/22 08:14:21;;;;;;;;;;;;;;;;;;5070518;28;1889;-61
2021/03/22 08:16:49;;;;;;;;;;;;;;;;;;5069141;28;848;-62
2021/03/22 08:19:31;;;;;;;;;;;;;;;;;;5071068;28;839;-62
2021/03/22 08:21:59;;;;;;;;;;;;;;;;;;5070486;28;1168;-62
2021/03/22 08:24:38;;;;;;;;;;;;;;;;;;5067923;28;1120;-62
2021/03/22 08:27:06;;;;;;;;;;;;;;;;;;5072054;28;834;-62
2021/03/22 08:29:35;;;;;;;;;;;;;;;;;;5071527;28;847;-61
2021/03/22 08:32:19;;;;;;;;;;;;;;;;;;5070975;28;859;-62
2021/03/22 08:35:06;;;;;;;;;;;;;;;;;;5070183;28;1885;-61
2021/03/22 08:37:39;;;;;;;;;;;;;;;;;;5059580;28;1374;-62
2021/03/22 08:40:04;;;;;;;;;;;;;;;;;;5071545;28;799;-62
2021/03/22 08:42:33;;;;;;;;;;;;;;;;;;5070497;28;834;-62
2021/03/22 08:45:05;;;;;;;;;;;;;;;;;;5070995;28;882;-62
2021/03/22 08:47:42;;;;;;;;;;;;;;;;;;5070835;28;858;-61
2021/03/22 08:50:07;;;;;;;;;;;;;;;;;;5070319;28;937;-63
2021/03/22 08:52:34;;;;;;;;;;;;;;;;;;5071770;28;818;-62
2021/03/22 08:55:11;;;;;;;;;;;;;;;;;;5050560;28;1961;-62
2021/03/22 08:57:40;;;;;;;;;;;;;;;;;;5050670;28;864;-61
2021/03/22 09:00:31;;;;;;;;;;;;;;;;;;5050964;28;907;-62
2021/03/22 09:03:17;;;;;;;;;;;;;;;;;;5048757;28;1128;-62
2021/03/22 09:06:02;;;;;;;;;;;;;;;;;;5050217;28;874;-62
2021/03/22 09:08:28;;;;;;;;;;;;;;;;;;5049404;28;1889;-61
2021/03/22 09:10:54;;;;;;;;;;;;;;;;;;5049722;28;844;-62
2021/03/22 09:13:36;;;;;;;;;;;;;;;;;;5049455;28;870;-62
2021/03/22 09:16:01;;;;;;;;;;;;;;;;;;5049626;28;1874;-62
2021/03/22 09:18:27;;;;;;;;;;;;;;;;;;5049909;28;846;-62
2021/03/22 09:20:52;;;;;;;;;;;;;;;;;;5049706;28;807;-62
2021/03/22 09:23:30;;;;;;;;;;;;;;;;;;5049081;28;851;-62
2021/03/22 09:25:56;;;;;;;;;;;;;;;;;;5049822;28;906;-62
2021/03/22 09:28:24;;;;;;;;;;;;;;;;;;5049553;28;858;-62
2021/03/22 09:31:16;;;;;;;;;;;;;;;;;;5049412;28;898;-62
2021/03/22 09:34:00;;;;;;;;;;;;;;;;;;5043080;28;1314;-62
2021/03/22 09:36:37;;;;;;;;;;;;;;;;;;5049077;28;866;-62
2021/03/22 09:39:06;;;;;;;;;;;;;;;;;;5050357;28;819;-61
2021/03/22 09:41:50;;;;;;;;;;;;;;;;;;5050122;28;1279;-62
2021/03/22 09:44:15;;;;;;;;;;;;;;;;;;5049305;28;847;-62
2021/03/22 09:46:41;;;;;;;;;;;;;;;;;;5049255;28;901;-62
2021/03/22 09:49:11;;;;;;;;;;;;;;;;;;5049249;28;867;-62
2021/03/22 09:51:45;;;;;;;;;;;;;;;;;;5049374;28;838;-61
2021/03/22 09:54:37;;;;;;;;;;;;;;;;;;5061392;28;1906;-62
2021/03/22 09:57:26;;;;;;;;;;;;;;;;;;5069315;28;1250;-62
2021/03/22 10:00:00;;;;;;;;;;;;;;;;;;5065002;28;1973;-62
2021/03/22 10:02:47;;;;;;;;;;;;;;;;;;5068956;28;870;-61
2021/03/22 10:05:16;;;;;;;;;;;;;;;;;;5068824;28;1194;-62
2021/03/22 10:07:41;;;;;;;;;;;;;;;;;;5069276;28;885;-62
2021/03/22 10:10:27;;;;;;;;;;;;;;;;;;5068703;28;823;-62
2021/03/22 10:12:56;;;;;;;;;;;;;;;;;;5068018;28;866;-61
2021/03/22 10:15:33;;;;;;;;;;;;;;;;;;5068370;28;1967;-62
2021/03/22 10:18:18;;;;;;;;;;;;;;;;;;5068437;28;894;-62
2021/03/22 10:20:44;;;;;;;;;;;;;;;;;;5064703;28;1058;-61
2021/03/22 10:23:26;;;;;;;;;;;;;;;;;;5068144;28;897;-62
2021/03/22 10:25:58;;;;;;;;;;;;;;;;;;5068147;28;878;-61
2021/03/22 10:28:25;;;;;;;;;;;;;;;;;;5068161;28;807;-61
2021/03/22 10:30:59;;;;;;;;;;;;;;;;;;5068125;28;799;-61
2021/03/22 10:33:25;;;;;;;;;;;;;;;;;;5068832;28;862;-61
2021/03/22 10:35:55;;;;;;;;;;;;;;;;;;5066860;28;1894;-61
2021/03/22 10:38:25;;;;;;;;;;;;;;;;;;5068238;28;866;-62
2021/03/22 10:40:51;;;;;;;;;;;;;;;;;;5068726;28;820;-62
2021/03/22 10:43:29;;;;;;;;;;;;;;;;;;5068280;28;1160;-62
2021/03/22 10:45:55;;;;;;;;;;;;;;;;;;5067926;28;928;-61
2021/03/22 10:48:27;;;;;;;;;;;;;;;;;;5067888;28;890;-62
2021/03/22 10:50:59;;;;;;;;;;;;;;;;;;5068372;28;878;-62
2021/03/22 10:53:25;;;;;;;;;;;;;;;;;;5061454;28;1101;-62
2021/03/22 10:55:50;;;;;;;;;;;;;;;;;;5047860;28;1898;-62
2021/03/22 10:58:19;;;;;;;;;;;;;;;;;;5048487;28;831;-63
2021/03/22 11:00:45;;;;;;;;;;;;;;;;;;5047848;28;874;-62
2021/03/22 11:03:17;;;;;;;;;;;;;;;;;;5047985;28;945;-63
2021/03/22 11:05:43;;;;;;;;;;;;;;;;;;5048039;28;830;-62
2021/03/22 11:08:25;;;;;;;;;;;;;;;;;;5047764;28;862;-63
2021/03/22 11:10:56;;;;;;;;;;;;;;;;;;5047369;28;878;-62
2021/03/22 11:13:26;;;;;;;;;;;;;;;;;;5047504;28;1123;-63
2021/03/22 11:15:51;;;;;;;;;;;;;;;;;;5047743;28;1897;-62
2021/03/22 11:18:18;;;;;;;;;;;;;;;;;;5047459;28;910;-62
2021/03/22 11:20:44;;;;;;;;;;;;;;;;;;5047066;28;831;-63
2021/03/22 11:23:20;;;;;;;;;;;;;;;;;;5047553;28;862;-62
2021/03/22 11:25:45;;;;;;;;;;;;;;;;;;5046826;28;979;-62
2021/03/22 11:28:20;;;;;;;;;;;;;;;;;;5047347;28;835;-62
2021/03/22 11:30:54;;;;;;;;;;;;;;;;;;5047391;28;814;-62
2021/03/22 11:33:27;;;;;;;;;;;;;;;;;;5047343;28;795;-62
2021/03/22 11:36:01;;;;;;;;;;;;;;;;;;5046395;28;1971;-62
2021/03/22 11:38:31;;;;;;;;;;;;;;;;;;5045973;28;866;-62
2021/03/22 11:40:57;;;;;;;;;;;;;;;;;;5047543;28;855;-62
2021/03/22 11:43:25;;;;;;;;;;;;;;;;;;5046825;28;937;-62
2021/03/22 11:45:50;;;;;;;;;;;;;;;;;;5046938;28;866;-63
2021/03/22 11:48:22;;;;;;;;;;;;;;;;;;5047279;28;918;-62
2021/03/22 11:50:59;;;;;;;;;;;;;;;;;;5045597;28;1603;-62
2021/03/22 11:53:25;;;;;;;;;;;;;;;;;;5052979;28;1086;-62
2021/03/22 11:55:52;;;;;;;;;;;;;;;;;;5065867;28;1922;-62
2021/03/22 11:58:29;;;;;;;;;;;;;;;;;;5066507;28;843;-62
2021/03/22 12:00:55;;;;;;;;;;;;;;;;;;5066702;28;861;-63
2021/03/22 12:03:28;;;;;;;;;;;;;;;;;;5067252;28;881;-62
2021/03/22 12:06:14;;;;;;;;;;;;;;;;;;5067020;28;839;-62
2021/03/22 12:08:52;;;;;;;;;;;;;;;;;;5066261;28;890;-62
2021/03/22 12:11:19;;;;;;;;;;;;;;;;;;5066507;28;843;-62
2021/03/22 12:13:48;;;;;;;;;;;;;;;;;;5066383;28;839;-62
2021/03/22 12:16:18;;;;;;;;;;;;;;;;;;5062011;28;1963;-62
2021/03/22 12:18:43;;;;;;;;;;;;;;;;;;5065530;28;708;-62
2021/03/22 12:21:10;;;;;;;;;;;;;;;;;;5064755;28;1005;-63
2021/03/22 12:23:36;;;;;;;;;;;;;;;;;;5066391;28;886;-62
2021/03/22 12:26:02;;;;;;;;;;;;;;;;;;5067457;28;907;-62
2021/03/22 12:28:28;;;;;;;;;;;;;;;;;;5066558;28;862;-63
2021/03/22 12:30:53;;;;;;;;;;;;;;;;;;5066919;28;830;-63
2021/03/22 12:33:26;;;;;;;;;;;;;;;;;;5066280;28;835;-63
2021/03/22 12:35:52;;;;;;;;;;;;;;;;;;5066278;28;1961;-62
2021/03/22 12:38:17;;;;;;;;;;;;;;;;;;5066857;28;846;-62
2021/03/22 12:40:43;;;;;;;;;;;;;;;;;;5065368;28;823;-62
2021/03/22 12:43:13;;;;;;;;;;;;;;;;;;5065732;28;870;-63
2021/03/22 12:45:39;;;;;;;;;;;;;;;;;;5066580;28;894;-62
2021/03/22 12:48:05;;;;;;;;;;;;;;;;;;5067246;28;917;-62
2021/03/22 12:50:35;;;;;;;;;;;;;;;;;;5068713;28;1289;-62
2021/03/22 12:53:01;;;;;;;;;;;;;;;;;;5066866;28;1160;-62
2021/03/22 12:55:27;;;;;;;;;;;;;;;;;;5049988;28;1993;-62
2021/03/22 12:57:54;;;;;;;;;;;;;;;;;;5048958;28;807;-62
2021/03/22 13:00:21;;;;;;;;;;;;;;;;;;5048814;28;935;-62
2021/03/22 13:02:46;;;;;;;;;;;;;;;;;;5048858;28;843;-63
2021/03/22 13:05:26;;;;;;;;;;;;;;;;;;5047044;28;1193;-62
2021/03/22 13:07:53;;;;;;;;;;;;;;;;;;5048246;28;702;-62
2021/03/22 13:10:24;;;;;;;;;;;;;;;;;;5047430;28;772;-62
2021/03/22 13:12:50;;;;;;;;;;;;;;;;;;5049299;28;835;-62
2021/03/22 13:15:28;;;;;;;;;;;;;;;;;;5043757;28;1961;-63
2021/03/22 13:17:57;;;;;;;;;;;;;;;;;;5039971;28;977;-62
2021/03/22 13:20:27;;;;;;;;;;;;;;;;;;5049379;28;822;-62
2021/03/22 13:22:59;;;;;;;;;;;;;;;;;;5036207;28;945;-59
2021/03/22 13:25:26;;;;;;;;;;;;;;;;;;5048894;28;886;-59
2021/03/22 13:27:57;;;;;;;;;;;;;;;;;;5049023;28;938;-61
2021/03/22 13:30:25;;;;;;;;;;;;;;;;;;5048374;28;878;-58
2021/03/22 13:32:54;;;;;;;;;;;;;;;;;;5052189;28;1092;-60
2021/03/22 13:35:24;;;;;;;;;;;;;;;;;;5034046;28;1963;-59
2021/03/22 13:37:50;;;;;;;;;;;;;;;;;;5035484;28;1723;-59
2021/03/22 13:40:19;;;;;;;;;;;;;;;;;;5035343;28;1887;-63
2021/03/22 13:42:47;;;;;;;;;;;;;;;;;;5044231;28;1057;-61
2021/03/22 13:45:23;;;;;;;;;;;;;;;;;;5039078;28;1969;-62
2021/03/22 13:47:49;;;;;;;;;;;;;;;;;;5044205;28;1699;-58
2021/03/22 13:50:14;;;;;;;;;;;;;;;;;;5040276;28;1668;-59
2021/03/22 13:52:40;;;;;;;;;;;;;;;;;;5039481;28;1532;-63
2021/03/22 13:55:07;;;;;;;;;;;;;;;;;;5039216;28;2065;-60
2021/03/22 13:57:33;;;;;;;;;;;;;;;;;;5036574;28;1691;-60
2021/03/22 13:59:58;;;;;;;;;;;;;;;;;;5030717;28;1798;-58
2021/03/22 14:02:23;;;;;;;;;;;;;;;;;;5037342;28;992;-59
2021/03/22 14:04:49;;;;;;;;;;;;;;;;;;5034393;28;1568;-64
2021/03/22 14:07:14;;;;;;;;;;;;;;;;;;5044925;28;1786;-63
2021/03/22 14:09:40;;;;;;;;;;;;;;;;;;5040135;28;1413;-60
2021/03/22 14:12:06;;;;;;;;;;;;;;;;;;5041127;28;2108;-59
2021/03/22 14:14:31;;;;;;;;;;;;;;;;;;5041954;28;1882;-65
2021/03/22 14:16:56;;;;;;;;;;;;;;;;;;5048816;28;1190;-64
2021/03/22 14:19:22;;;;;;;;;;;;;;;;;;5043611;28;1631;-68
2021/03/22 14:21:48;;;;;;;;;;;;;;;;;;5032663;28;1845;-69
2021/03/22 14:24:13;;;;;;;;;;;;;;;;;;5032060;28;1782;-60
2021/03/22 14:26:39;;;;;;;;;;;;;;;;;;5043082;28;1829;-62
2021/03/22 14:29:05;;;;;;;;;;;;;;;;;;5043467;28;1206;-65
2021/03/22 14:31:31;;;;;;;;;;;;;;;;;;5038572;28;1917;-64
2021/03/22 14:33:57;;;;;;;;;;;;;;;;;;5031109;28;1714;-58
2021/03/22 14:36:24;;;;;;;;;;;;;;;;;;5042550;28;1901;-61
2021/03/22 14:38:50;;;;;;;;;;;;;;;;;;5036798;28;1905;-61
2021/03/22 14:41:16;;;;;;;;;;;;;;;;;;5034816;28;1846;-62
2021/03/22 14:43:41;;;;;;;;;;;;;;;;;;5032509;28;1451;-61
2021/03/22 14:46:07;;;;;;;;;;;;;;;;;;5030685;28;1878;-63
2021/03/22 14:48:33;;;;;;;;;;;;;;;;;;5036517;28;1718;-60
2021/03/22 14:50:59;;;;;;;;;;;;;;;;;;5041100;28;1703;-60
2021/03/22 14:53:24;;;;;;;;;;;;;;;;;;5035503;28;1760;-62
2021/03/22 14:55:49;;;;;;;;;;;;;;;;;;5042261;28;1898;-58
2021/03/22 14:58:18;;;;;;;;;;;;;;;;;;5035431;28;1771;-62
2021/03/22 15:00:45;;;;;;;;;;;;;;;;;;5034187;28;1025;-60
2021/03/22 15:03:13;;;;;;;;;;;;;;;;;;5040033;28;1705;-65
2021/03/22 15:05:41;;;;;;;;;;;;;;;;;;5044068;28;997;-60
2021/03/22 15:08:09;;;;;;;;;;;;;;;;;;5037489;28;1945;-61
2021/03/22 15:10:37;;;;;;;;;;;;;;;;;;5040972;28;1677;-61
2021/03/22 15:13:04;;;;;;;;;;;;;;;;;;5038429;28;1609;-63
2021/03/22 15:15:32;;;;;;;;;;;;;;;;;;5030743;28;1909;-63
2021/03/22 15:17:58;;;;;;;;;;;;;;;;;;5033883;28;1631;-63
2021/03/22 15:20:33;;;;;;;;;;;;;;;;;;5041559;28;1702;-62
2021/03/22 15:22:59;;;;;;;;;;;;;;;;;;5036677;28;1680;-62
2021/03/22 15:25:30;;;;;;;;;;;;;;;;;;5042042;28;1070;-63
2021/03/22 15:27:56;;;;;;;;;;;;;;;;;;5033895;28;1691;-63
2021/03/22 15:30:23;;;;;;;;;;;;;;;;;;5036268;28;1735;-63
2021/03/22 15:32:51;;;;;;;;;;;;;;;;;;5027105;28;1762;-63
2021/03/22 15:35:23;;;;;;;;;;;;;;;;;;5034424;28;1971;-63
2021/03/22 15:37:50;;;;;;;;;;;;;;;;;;5029353;28;1801;-63
2021/03/22 15:40:19;;;;;;;;;;;;;;;;;;5031181;28;1686;-63
2021/03/22 15:42:46;;;;;;;;;;;;;;;;;;5032976;28;1682;-63
2021/03/22 15:45:18;;;;;;;;;;;;;;;;;;5035101;28;1209;-63
2021/03/22 15:47:45;;;;;;;;;;;;;;;;;;5036738;28;1748;-63
2021/03/22 15:50:11;;;;;;;;;;;;;;;;;;5035458;28;1702;-63
2021/03/22 15:52:39;;;;;;;;;;;;;;;;;;5045272;28;1770;-61
2021/03/22 15:55:05;;;;;;;;;;;;;;;;;;5039474;28;1897;-62
2021/03/22 15:57:30;;;;;;;;;;;;;;;;;;5036010;28;1605;-62
2021/03/22 15:59:56;;;;;;;;;;;;;;;;;;5030329;28;1767;-62
2021/03/22 16:02:21;;;;;;;;;;;;;;;;;;5044964;28;1687;-61
2021/03/22 16:04:46;;;;;;;;;;;;;;;;;;5041865;28;1120;-61
2021/03/22 16:07:12;;;;;;;;;;;;;;;;;;5048025;28;1781;-62
2021/03/22 16:09:37;;;;;;;;;;;;;;;;;;5041251;28;1731;-62
2021/03/22 16:12:02;;;;;;;;;;;;;;;;;;5041832;28;1730;-61
2021/03/22 16:14:28;;;;;;;;;;;;;;;;;;5042667;28;1890;-62
2021/03/22 16:16:54;;;;;;;;;;;;;;;;;;5042569;28;979;-62
2021/03/22 16:19:20;;;;;;;;;;;;;;;;;;5042490;28;1721;-62
2021/03/22 16:21:45;;;;;;;;;;;;;;;;;;5037165;28;1727;-62
2021/03/22 16:24:11;;;;;;;;;;;;;;;;;;5044634;28;1690;-61
2021/03/22 16:26:36;;;;;;;;;;;;;;;;;;5038695;28;1001;-62
2021/03/22 16:29:01;;;;;;;;;;;;;;;;;;5042458;28;1683;-63
2021/03/22 16:31:27;;;;;;;;;;;;;;;;;;5037589;28;2031;-61
2021/03/22 16:33:52;;;;;;;;;;;;;;;;;;5037639;28;1813;-62
2021/03/22 16:36:18;;;;;;;;;;;;;;;;;;5041611;28;1946;-63
2021/03/22 16:38:43;;;;;;;;;;;;;;;;;;5035266;28;2023;-62
2021/03/22 16:41:11;;;;;;;;;;;;;;;;;;5029733;28;1335;-62
2021/03/22 16:43:37;;;;;;;;;;;;;;;;;;5032212;28;2428;-62
2021/03/22 16:46:04;;;;;;;;;;;;;;;;;;5042054;28;1005;-61
2021/03/22 16:48:31;;;;;;;;;;;;;;;;;;5050237;28;830;-62
2021/03/22 16:50:57;;;;;;;;;;;;;;;;;;5058444;28;1159;-62
2021/03/22 16:53:23;;;;;;;;;;;;;;;;;;5059418;28;1293;-61
2021/03/22 16:55:48;;;;;;;;;;;;;;;;;;5060810;28;1922;-62
2021/03/22 16:58:14;;;;;;;;;;;;;;;;;;5069638;28;1056;-61
2021/03/22 17:00:40;;;;;;;;;;;;;;;;;;5057179;28;1087;-63
2021/03/22 17:03:05;;;;;;;;;;;;;;;;;;5054335;28;1103;-62
2021/03/22 17:05:33;;;;;;;;;;;;;;;;;;5062400;28;1273;-63
2021/03/22 17:08:01;;;;;;;;;;;;;;;;;;5069291;28;1174;-63
2021/03/22 17:10:31;;;;;;;;;;;;;;;;;;5067497;28;1202;-62
2021/03/22 17:12:57;;;;;;;;;;;;;;;;;;5069649;28;963;-62
2021/03/22 17:15:24;;;;;;;;;;;;;;;;;;5052011;28;2491;-63
2021/03/22 17:17:50;;;;;;;;;;;;;;;;;;5057192;28;1048;-62
2021/03/22 17:20:17;;;;;;;;;;;;;;;;;;5057950;28;1150;-63
2021/03/22 17:22:43;;;;;;;;;;;;;;;;;;5053364;28;1302;-63
2021/03/22 17:25:11;;;;;;;;;;;;;;;;;;5028900;28;811;-64
2021/03/22 17:27:37;;;;;;;;;;;;;;;;;;5012060;28;1513;-61